sensor_id;sensor_type;location;lat;lon;timestamp;temperature;humidity
44063;DHT22;29727;47.606;19.130;2023-01-28T00:02:06;4.60;71.40
44063;DHT22;29727;47.606;19.130;2023-01-28T00:04:32;4.60;71.10
44063;DHT22;29727;47.606;19.130;2023-01-28T00:06:58;4.70;70.50
44063;DHT22;29727;47.606;19.130;2023-01-28T00:09:23;4.70;70.30
44063;DHT22;29727;47.606;19.130;2023-01-28T00:11:49;4.70;70.70
44063;DHT22;29727;47.606;19.130;2023-01-28T00:14:16;4.70;71.10
44063;DHT22;29727;47.606;19.130;2023-01-28T00:16:41;4.80;71.10
44063;DHT22;29727;47.606;19.130;2023-01-28T00:19:07;4.90;69.70
44063;DHT22;29727;47.606;19.130;2023-01-28T00:21:33;4.90;70.20
44063;DHT22;29727;47.606;19.130;2023-01-28T00:23:59;4.90;70.10
44063;DHT22;29727;47.606;19.130;2023-01-28T00:26:25;4.90;69.20
44063;DHT22;29727;47.606;19.130;2023-01-28T00:28:50;4.90;69.70
44063;DHT22;29727;47.606;19.130;2023-01-28T00:31:22;5.00;69.30
44063;DHT22;29727;47.606;19.130;2023-01-28T00:33:51;5.00;68.40
44063;DHT22;29727;47.606;19.130;2023-01-28T00:36:18;4.90;68.90
44063;DHT22;29727;47.606;19.130;2023-01-28T00:38:51;4.90;68.30
44063;DHT22;29727;47.606;19.130;2023-01-28T00:41:22;4.90;68.80
44063;DHT22;29727;47.606;19.130;2023-01-28T00:43:49;4.90;68.50
44063;DHT22;29727;47.606;19.130;2023-01-28T00:46:15;4.80;68.50
44063;DHT22;29727;47.606;19.130;2023-01-28T00:48:42;4.70;68.80
44063;DHT22;29727;47.606;19.130;2023-01-28T00:51:09;4.60;69.40
44063;DHT22;29727;47.606;19.130;2023-01-28T00:53:36;4.60;69.10
44063;DHT22;29727;47.606;19.130;2023-01-28T00:56:04;4.60;69.30
44063;DHT22;29727;47.606;19.130;2023-01-28T00:58:30;4.60;69.00
44063;DHT22;29727;47.606;19.130;2023-01-28T01:00:56;4.60;69.30
44063;DHT22;29727;47.606;19.130;2023-01-28T01:03:22;4.60;69.20
44063;DHT22;29727;47.606;19.130;2023-01-28T01:05:47;4.60;68.40
44063;DHT22;29727;47.606;19.130;2023-01-28T01:08:13;4.60;69.00
44063;DHT22;29727;47.606;19.130;2023-01-28T01:10:39;4.60;69.10
44063;DHT22;29727;47.606;19.130;2023-01-28T01:13:06;4.50;69.70
44063;DHT22;29727;47.606;19.130;2023-01-28T01:15:31;4.50;69.60
44063;DHT22;29727;47.606;19.130;2023-01-28T01:17:57;4.50;69.40
44063;DHT22;29727;47.606;19.130;2023-01-28T01:20:26;4.50;69.20
44063;DHT22;29727;47.606;19.130;2023-01-28T01:22:52;4.40;69.70
44063;DHT22;29727;47.606;19.130;2023-01-28T01:25:19;4.50;70.30
44063;DHT22;29727;47.606;19.130;2023-01-28T01:27:47;4.50;70.20
44063;DHT22;29727;47.606;19.130;2023-01-28T01:30:14;4.50;70.60
44063;DHT22;29727;47.606;19.130;2023-01-28T01:32:40;4.50;70.30
44063;DHT22;29727;47.606;19.130;2023-01-28T01:35:06;4.60;69.80
44063;DHT22;29727;47.606;19.130;2023-01-28T01:37:33;4.50;70.50
44063;DHT22;29727;47.606;19.130;2023-01-28T01:40:00;4.50;70.80
44063;DHT22;29727;47.606;19.130;2023-01-28T01:42:27;4.50;70.50
44063;DHT22;29727;47.606;19.130;2023-01-28T01:45:02;4.50;70.90
44063;DHT22;29727;47.606;19.130;2023-01-28T01:50:27;4.50;71.70
44063;DHT22;29727;47.606;19.130;2023-01-28T01:52:54;4.50;71.30
44063;DHT22;29727;47.606;19.130;2023-01-28T01:55:23;4.50;71.30
44063;DHT22;29727;47.606;19.130;2023-01-28T01:57:51;4.60;71.70
44063;DHT22;29727;47.606;19.130;2023-01-28T02:00:18;4.60;71.40
44063;DHT22;29727;47.606;19.130;2023-01-28T02:02:47;4.60;71.90
44063;DHT22;29727;47.606;19.130;2023-01-28T02:05:16;4.70;71.70
44063;DHT22;29727;47.606;19.130;2023-01-28T02:07:44;4.70;71.20
44063;DHT22;29727;47.606;19.130;2023-01-28T02:10:11;4.80;70.70
44063;DHT22;29727;47.606;19.130;2023-01-28T02:12:41;4.80;70.60
44063;DHT22;29727;47.606;19.130;2023-01-28T02:15:13;4.80;71.20
44063;DHT22;29727;47.606;19.130;2023-01-28T02:17:44;4.80;71.70
44063;DHT22;29727;47.606;19.130;2023-01-28T02:21:03;4.90;71.50
44063;DHT22;29727;47.606;19.130;2023-01-28T02:31:17;4.90;71.30
44063;DHT22;29727;47.606;19.130;2023-01-28T02:39:06;4.90;71.00
44063;DHT22;29727;47.606;19.130;2023-01-28T02:41:38;4.90;70.90
44063;DHT22;29727;47.606;19.130;2023-01-28T02:44:05;4.90;70.70
44063;DHT22;29727;47.606;19.130;2023-01-28T02:49:52;4.90;70.60
44063;DHT22;29727;47.606;19.130;2023-01-28T03:00:53;4.60;72.60
44063;DHT22;29727;47.606;19.130;2023-01-28T03:03:45;4.60;72.70
44063;DHT22;29727;47.606;19.130;2023-01-28T03:06:21;4.50;73.00
44063;DHT22;29727;47.606;19.130;2023-01-28T03:08:55;4.40;72.80
44063;DHT22;29727;47.606;19.130;2023-01-28T03:11:45;4.40;73.10
44063;DHT22;29727;47.606;19.130;2023-01-28T03:14:31;4.40;73.60
44063;DHT22;29727;47.606;19.130;2023-01-28T03:17:53;4.30;74.00
44063;DHT22;29727;47.606;19.130;2023-01-28T03:23:59;4.40;73.80
44063;DHT22;29727;47.606;19.130;2023-01-28T03:29:57;4.40;74.30
44063;DHT22;29727;47.606;19.130;2023-01-28T03:32:42;4.40;74.60
44063;DHT22;29727;47.606;19.130;2023-01-28T03:35:31;4.40;74.10
44063;DHT22;29727;47.606;19.130;2023-01-28T03:38:19;4.50;73.60
44063;DHT22;29727;47.606;19.130;2023-01-28T03:40:55;4.50;73.20
44063;DHT22;29727;47.606;19.130;2023-01-28T03:43:21;4.50;73.30
44063;DHT22;29727;47.606;19.130;2023-01-28T03:45:47;4.50;73.70
44063;DHT22;29727;47.606;19.130;2023-01-28T03:48:20;4.40;73.90
44063;DHT22;29727;47.606;19.130;2023-01-28T03:50:46;4.40;74.40
44063;DHT22;29727;47.606;19.130;2023-01-28T03:53:13;4.40;73.60
44063;DHT22;29727;47.606;19.130;2023-01-28T03:55:41;4.40;74.10
44063;DHT22;29727;47.606;19.130;2023-01-28T03:58:07;4.40;74.20
44063;DHT22;29727;47.606;19.130;2023-01-28T04:00:37;4.40;74.10
44063;DHT22;29727;47.606;19.130;2023-01-28T04:03:07;4.40;74.70
44063;DHT22;29727;47.606;19.130;2023-01-28T04:05:56;4.50;75.00
44063;DHT22;29727;47.606;19.130;2023-01-28T04:08:22;4.50;73.90
44063;DHT22;29727;47.606;19.130;2023-01-28T04:10:48;4.60;73.70
44063;DHT22;29727;47.606;19.130;2023-01-28T04:13:13;4.70;73.20
44063;DHT22;29727;47.606;19.130;2023-01-28T04:15:39;4.70;73.60
44063;DHT22;29727;47.606;19.130;2023-01-28T04:18:11;4.70;73.10
44063;DHT22;29727;47.606;19.130;2023-01-28T04:20:37;4.70;73.70
44063;DHT22;29727;47.606;19.130;2023-01-28T04:23:04;4.80;73.80
44063;DHT22;29727;47.606;19.130;2023-01-28T04:25:30;4.80;73.70
44063;DHT22;29727;47.606;19.130;2023-01-28T04:27:56;4.80;73.40
44063;DHT22;29727;47.606;19.130;2023-01-28T04:30:31;4.80;73.50
44063;DHT22;29727;47.606;19.130;2023-01-28T04:32:57;4.80;73.00
44063;DHT22;29727;47.606;19.130;2023-01-28T04:35:22;4.80;72.90
44063;DHT22;29727;47.606;19.130;2023-01-28T04:37:48;4.90;73.50
44063;DHT22;29727;47.606;19.130;2023-01-28T04:40:14;4.90;72.90
44063;DHT22;29727;47.606;19.130;2023-01-28T04:42:39;4.90;73.20
44063;DHT22;29727;47.606;19.130;2023-01-28T04:45:06;4.90;73.50
44063;DHT22;29727;47.606;19.130;2023-01-28T04:47:32;5.00;73.10
44063;DHT22;29727;47.606;19.130;2023-01-28T04:49:57;5.00;72.90
44063;DHT22;29727;47.606;19.130;2023-01-28T04:52:23;5.00;72.50
44063;DHT22;29727;47.606;19.130;2023-01-28T04:54:48;5.00;73.00
44063;DHT22;29727;47.606;19.130;2023-01-28T04:57:14;5.00;72.10
44063;DHT22;29727;47.606;19.130;2023-01-28T04:59:41;5.00;72.60
44063;DHT22;29727;47.606;19.130;2023-01-28T05:02:06;5.00;72.00
44063;DHT22;29727;47.606;19.130;2023-01-28T05:04:32;5.00;72.50
44063;DHT22;29727;47.606;19.130;2023-01-28T05:06:57;5.00;72.60
44063;DHT22;29727;47.606;19.130;2023-01-28T05:09:26;4.90;72.60
44063;DHT22;29727;47.606;19.130;2023-01-28T05:11:52;5.00;73.20
44063;DHT22;29727;47.606;19.130;2023-01-28T05:14:17;4.90;73.30
44063;DHT22;29727;47.606;19.130;2023-01-28T05:16:43;5.00;73.30
44063;DHT22;29727;47.606;19.130;2023-01-28T05:19:08;5.00;73.40
44063;DHT22;29727;47.606;19.130;2023-01-28T05:21:34;5.00;73.40
44063;DHT22;29727;47.606;19.130;2023-01-28T05:24:00;5.00;73.30
44063;DHT22;29727;47.606;19.130;2023-01-28T05:26:25;5.00;71.80
44063;DHT22;29727;47.606;19.130;2023-01-28T05:28:51;5.00;72.40
44063;DHT22;29727;47.606;19.130;2023-01-28T05:33:43;5.00;71.80
44063;DHT22;29727;47.606;19.130;2023-01-28T05:36:09;5.00;72.30
44063;DHT22;29727;47.606;19.130;2023-01-28T05:38:34;4.90;72.30
44063;DHT22;29727;47.606;19.130;2023-01-28T05:41:00;4.80;72.60
44063;DHT22;29727;47.606;19.130;2023-01-28T05:43:25;4.80;72.90
44063;DHT22;29727;47.606;19.130;2023-01-28T05:45:51;4.70;72.60
44063;DHT22;29727;47.606;19.130;2023-01-28T05:48:24;4.70;73.20
44063;DHT22;29727;47.606;19.130;2023-01-28T05:50:50;4.70;73.40
44063;DHT22;29727;47.606;19.130;2023-01-28T05:53:16;4.60;73.80
44063;DHT22;29727;47.606;19.130;2023-01-28T05:55:42;4.70;73.50
44063;DHT22;29727;47.606;19.130;2023-01-28T05:58:10;4.70;73.20
44063;DHT22;29727;47.606;19.130;2023-01-28T06:00:36;4.70;73.80
44063;DHT22;29727;47.606;19.130;2023-01-28T06:03:01;4.70;73.60
44063;DHT22;29727;47.606;19.130;2023-01-28T06:05:27;4.80;73.20
44063;DHT22;29727;47.606;19.130;2023-01-28T06:07:53;4.80;73.70
44063;DHT22;29727;47.606;19.130;2023-01-28T06:10:18;4.80;72.60
44063;DHT22;29727;47.606;19.130;2023-01-28T06:12:44;4.80;73.20
44063;DHT22;29727;47.606;19.130;2023-01-28T06:15:10;4.90;73.20
44063;DHT22;29727;47.606;19.130;2023-01-28T06:17:36;5.00;72.90
44063;DHT22;29727;47.606;19.130;2023-01-28T06:20:02;5.00;72.90
44063;DHT22;29727;47.606;19.130;2023-01-28T06:22:36;5.00;72.80
44063;DHT22;29727;47.606;19.130;2023-01-28T06:25:03;5.00;73.40
44063;DHT22;29727;47.606;19.130;2023-01-28T06:27:29;5.00;73.40
44063;DHT22;29727;47.606;19.130;2023-01-28T06:29:54;5.00;73.40
44063;DHT22;29727;47.606;19.130;2023-01-28T06:32:20;5.10;73.40
44063;DHT22;29727;47.606;19.130;2023-01-28T06:37:17;5.10;72.90
44063;DHT22;29727;47.606;19.130;2023-01-28T06:39:43;5.10;73.00
44063;DHT22;29727;47.606;19.130;2023-01-28T06:42:09;5.10;73.60
44063;DHT22;29727;47.606;19.130;2023-01-28T06:44:34;5.10;73.40
44063;DHT22;29727;47.606;19.130;2023-01-28T06:47:00;5.20;73.00
44063;DHT22;29727;47.606;19.130;2023-01-28T06:49:26;5.20;72.80
44063;DHT22;29727;47.606;19.130;2023-01-28T06:51:52;5.10;73.30
44063;DHT22;29727;47.606;19.130;2023-01-28T06:54:17;5.20;73.40
44063;DHT22;29727;47.606;19.130;2023-01-28T06:56:43;5.20;73.20
44063;DHT22;29727;47.606;19.130;2023-01-28T06:59:09;5.20;73.20
44063;DHT22;29727;47.606;19.130;2023-01-28T07:01:34;5.20;73.30
44063;DHT22;29727;47.606;19.130;2023-01-28T07:04:00;5.10;73.10
44063;DHT22;29727;47.606;19.130;2023-01-28T07:06:25;5.10;73.60
44063;DHT22;29727;47.606;19.130;2023-01-28T07:08:54;5.00;73.30
44063;DHT22;29727;47.606;19.130;2023-01-28T07:11:20;5.00;73.90
44063;DHT22;29727;47.606;19.130;2023-01-28T07:13:45;5.00;74.50
44063;DHT22;29727;47.606;19.130;2023-01-28T07:16:12;5.00;74.10
44063;DHT22;29727;47.606;19.130;2023-01-28T07:18:38;4.90;74.50
44063;DHT22;29727;47.606;19.130;2023-01-28T07:21:04;4.90;74.70
44063;DHT22;29727;47.606;19.130;2023-01-28T07:23:30;4.80;74.80
44063;DHT22;29727;47.606;19.130;2023-01-28T07:26:01;4.80;75.20
44063;DHT22;29727;47.606;19.130;2023-01-28T07:28:26;4.70;75.40
44063;DHT22;29727;47.606;19.130;2023-01-28T07:30:52;4.70;76.00
44063;DHT22;29727;47.606;19.130;2023-01-28T07:33:18;4.60;76.60
44063;DHT22;29727;47.606;19.130;2023-01-28T07:35:44;4.50;77.10
44063;DHT22;29727;47.606;19.130;2023-01-28T07:38:11;4.50;77.60
44063;DHT22;29727;47.606;19.130;2023-01-28T07:40:37;4.40;77.00
44063;DHT22;29727;47.606;19.130;2023-01-28T07:43:03;4.30;77.30
44063;DHT22;29727;47.606;19.130;2023-01-28T07:45:32;4.30;77.70
44063;DHT22;29727;47.606;19.130;2023-01-28T07:47:59;4.20;77.90
44063;DHT22;29727;47.606;19.130;2023-01-28T07:50:27;4.20;78.00
44063;DHT22;29727;47.606;19.130;2023-01-28T07:52:54;4.20;78.10
44063;DHT22;29727;47.606;19.130;2023-01-28T07:55:21;4.30;78.20
44063;DHT22;29727;47.606;19.130;2023-01-28T07:57:54;4.30;78.40
44063;DHT22;29727;47.606;19.130;2023-01-28T08:00:21;4.30;77.80
44063;DHT22;29727;47.606;19.130;2023-01-28T08:02:48;4.30;77.80
44063;DHT22;29727;47.606;19.130;2023-01-28T08:05:19;4.40;77.50
44063;DHT22;29727;47.606;19.130;2023-01-28T08:07:46;4.30;77.20
44063;DHT22;29727;47.606;19.130;2023-01-28T08:10:16;4.30;77.60
44063;DHT22;29727;47.606;19.130;2023-01-28T08:12:56;4.30;77.30
44063;DHT22;29727;47.606;19.130;2023-01-28T08:15:25;4.30;78.00
44063;DHT22;29727;47.606;19.130;2023-01-28T08:17:53;4.30;78.20
44063;DHT22;29727;47.606;19.130;2023-01-28T08:20:19;4.30;77.90
44063;DHT22;29727;47.606;19.130;2023-01-28T08:22:45;4.30;77.70
44063;DHT22;29727;47.606;19.130;2023-01-28T08:25:10;4.30;77.70
44063;DHT22;29727;47.606;19.130;2023-01-28T08:27:36;4.20;77.70
44063;DHT22;29727;47.606;19.130;2023-01-28T08:30:02;4.20;78.10
44063;DHT22;29727;47.606;19.130;2023-01-28T08:32:28;4.10;78.00
44063;DHT22;29727;47.606;19.130;2023-01-28T08:34:55;4.20;77.40
44063;DHT22;29727;47.606;19.130;2023-01-28T08:37:20;4.20;77.80
44063;DHT22;29727;47.606;19.130;2023-01-28T08:39:46;4.30;78.00
44063;DHT22;29727;47.606;19.130;2023-01-28T08:42:12;4.30;77.70
44063;DHT22;29727;47.606;19.130;2023-01-28T08:44:37;4.30;77.50
44063;DHT22;29727;47.606;19.130;2023-01-28T08:47:03;4.30;76.70
44063;DHT22;29727;47.606;19.130;2023-01-28T08:49:28;4.30;76.60
44063;DHT22;29727;47.606;19.130;2023-01-28T08:51:54;4.30;77.10
44063;DHT22;29727;47.606;19.130;2023-01-28T08:54:20;4.30;77.60
44063;DHT22;29727;47.606;19.130;2023-01-28T08:56:46;4.30;76.60
44063;DHT22;29727;47.606;19.130;2023-01-28T08:59:21;4.30;77.10
44063;DHT22;29727;47.606;19.130;2023-01-28T09:01:53;4.20;77.40
44063;DHT22;29727;47.606;19.130;2023-01-28T09:04:18;4.40;77.10
44063;DHT22;29727;47.606;19.130;2023-01-28T09:06:44;4.40;75.40
44063;DHT22;29727;47.606;19.130;2023-01-28T09:09:10;4.40;74.80
44063;DHT22;29727;47.606;19.130;2023-01-28T09:11:37;4.40;74.90
44063;DHT22;29727;47.606;19.130;2023-01-28T09:14:03;4.40;75.50
44063;DHT22;29727;47.606;19.130;2023-01-28T09:16:29;4.50;75.20
44063;DHT22;29727;47.606;19.130;2023-01-28T09:18:54;4.50;75.60
44063;DHT22;29727;47.606;19.130;2023-01-28T09:21:20;4.50;76.00
44063;DHT22;29727;47.606;19.130;2023-01-28T09:23:46;4.60;75.60
44063;DHT22;29727;47.606;19.130;2023-01-28T09:26:12;4.70;75.60
44063;DHT22;29727;47.606;19.130;2023-01-28T09:28:37;4.70;74.00
44063;DHT22;29727;47.606;19.130;2023-01-28T09:31:06;4.70;74.50
44063;DHT22;29727;47.606;19.130;2023-01-28T09:33:32;4.80;73.50
44063;DHT22;29727;47.606;19.130;2023-01-28T09:36:00;4.90;73.10
44063;DHT22;29727;47.606;19.130;2023-01-28T09:38:26;4.80;73.60
44063;DHT22;29727;47.606;19.130;2023-01-28T09:43:46;4.90;73.00
44063;DHT22;29727;47.606;19.130;2023-01-28T09:46:14;5.00;72.90
44063;DHT22;29727;47.606;19.130;2023-01-28T09:48:45;4.90;73.50
44063;DHT22;29727;47.606;19.130;2023-01-28T09:51:42;5.00;73.70
44063;DHT22;29727;47.606;19.130;2023-01-28T09:57:01;5.10;71.40
44063;DHT22;29727;47.606;19.130;2023-01-28T09:59:33;5.20;69.90
44063;DHT22;29727;47.606;19.130;2023-01-28T10:08:03;5.20;70.60
44063;DHT22;29727;47.606;19.130;2023-01-28T10:10:55;5.20;71.40
44063;DHT22;29727;47.606;19.130;2023-01-28T10:13:42;5.10;71.00
44063;DHT22;29727;47.606;19.130;2023-01-28T10:18:45;5.20;70.90
44063;DHT22;29727;47.606;19.130;2023-01-28T10:21:40;5.20;71.60
44063;DHT22;29727;47.606;19.130;2023-01-28T10:26:50;5.40;70.10
44063;DHT22;29727;47.606;19.130;2023-01-28T10:29:31;5.40;70.20
44063;DHT22;29727;47.606;19.130;2023-01-28T10:32:03;5.40;70.60
44063;DHT22;29727;47.606;19.130;2023-01-28T10:34:30;5.50;70.60
44063;DHT22;29727;47.606;19.130;2023-01-28T10:36:56;5.50;69.60
44063;DHT22;29727;47.606;19.130;2023-01-28T10:39:24;5.50;70.10
44063;DHT22;29727;47.606;19.130;2023-01-28T10:41:50;5.70;68.80
44063;DHT22;29727;47.606;19.130;2023-01-28T10:46:56;5.70;70.30
44063;DHT22;29727;47.606;19.130;2023-01-28T10:49:29;5.80;70.70
44063;DHT22;29727;47.606;19.130;2023-01-28T10:51:58;5.90;68.90
44063;DHT22;29727;47.606;19.130;2023-01-28T10:57:09;6.00;68.20
44063;DHT22;29727;47.606;19.130;2023-01-28T10:59:37;6.20;67.30
44063;DHT22;29727;47.606;19.130;2023-01-28T11:02:28;6.20;67.80
44063;DHT22;29727;47.606;19.130;2023-01-28T11:05:15;6.20;66.10
44063;DHT22;29727;47.606;19.130;2023-01-28T11:07:45;6.20;66.00
44063;DHT22;29727;47.606;19.130;2023-01-28T11:10:28;6.20;66.20
44063;DHT22;29727;47.606;19.130;2023-01-28T11:12:57;6.20;65.00
44063;DHT22;29727;47.606;19.130;2023-01-28T11:15:23;6.20;65.60
44063;DHT22;29727;47.606;19.130;2023-01-28T11:18:00;6.20;66.10
44063;DHT22;29727;47.606;19.130;2023-01-28T11:20:28;6.20;64.70
44063;DHT22;29727;47.606;19.130;2023-01-28T11:22:55;6.20;65.20
44063;DHT22;29727;47.606;19.130;2023-01-28T11:25:35;6.20;65.60
44063;DHT22;29727;47.606;19.130;2023-01-28T11:28:14;6.30;65.80
44063;DHT22;29727;47.606;19.130;2023-01-28T11:30:49;6.30;64.60
44063;DHT22;29727;47.606;19.130;2023-01-28T11:33:21;6.30;64.40
44063;DHT22;29727;47.606;19.130;2023-01-28T11:35:56;6.30;65.10
44063;DHT22;29727;47.606;19.130;2023-01-28T11:38:24;6.40;65.50
44063;DHT22;29727;47.606;19.130;2023-01-28T11:40:56;6.40;63.80
44063;DHT22;29727;47.606;19.130;2023-01-28T11:43:25;6.40;64.70
44063;DHT22;29727;47.606;19.130;2023-01-28T11:52:02;6.50;64.40
44063;DHT22;29727;47.606;19.130;2023-01-28T12:00:37;6.60;63.40
44063;DHT22;29727;47.606;19.130;2023-01-28T12:05:36;6.60;64.30
44063;DHT22;29727;47.606;19.130;2023-01-28T12:19:28;6.60;65.10
44063;DHT22;29727;47.606;19.130;2023-01-28T12:22:12;6.60;64.60
44063;DHT22;29727;47.606;19.130;2023-01-28T12:27:41;6.60;64.40
44063;DHT22;29727;47.606;19.130;2023-01-28T12:30:27;6.60;64.80
44063;DHT22;29727;47.606;19.130;2023-01-28T12:33:30;6.60;64.70
44063;DHT22;29727;47.606;19.130;2023-01-28T12:41:35;6.70;64.30
44063;DHT22;29727;47.606;19.130;2023-01-28T12:44:04;6.70;64.30
44063;DHT22;29727;47.606;19.130;2023-01-28T12:46:43;6.70;63.80
44063;DHT22;29727;47.606;19.130;2023-01-28T12:49:43;6.70;63.50
44063;DHT22;29727;47.606;19.130;2023-01-28T12:52:35;6.70;64.30
44063;DHT22;29727;47.606;19.130;2023-01-28T12:55:21;6.70;65.00
44063;DHT22;29727;47.606;19.130;2023-01-28T12:57:50;6.70;63.80
44063;DHT22;29727;47.606;19.130;2023-01-28T13:00:31;6.80;62.70
44063;DHT22;29727;47.606;19.130;2023-01-28T13:03:23;6.70;63.20
44063;DHT22;29727;47.606;19.130;2023-01-28T13:06:03;6.70;63.60
44063;DHT22;29727;47.606;19.130;2023-01-28T13:08:31;6.80;64.00
44063;DHT22;29727;47.606;19.130;2023-01-28T13:10:59;6.80;63.50
44063;DHT22;29727;47.606;19.130;2023-01-28T13:13:38;6.80;63.20
44063;DHT22;29727;47.606;19.130;2023-01-28T13:16:08;6.80;63.50
44063;DHT22;29727;47.606;19.130;2023-01-28T13:23:49;6.80;63.00
44063;DHT22;29727;47.606;19.130;2023-01-28T13:29:06;6.90;63.20
44063;DHT22;29727;47.606;19.130;2023-01-28T13:31:37;6.90;63.80
44063;DHT22;29727;47.606;19.130;2023-01-28T13:34:05;6.90;63.20
44063;DHT22;29727;47.606;19.130;2023-01-28T13:36:43;6.90;63.20
44063;DHT22;29727;47.606;19.130;2023-01-28T13:41:49;7.00;62.70
44063;DHT22;29727;47.606;19.130;2023-01-28T13:46:52;7.00;62.30
44063;DHT22;29727;47.606;19.130;2023-01-28T13:49:27;7.00;62.70
44063;DHT22;29727;47.606;19.130;2023-01-28T14:17:01;6.90;63.50
44063;DHT22;29727;47.606;19.130;2023-01-28T14:19:32;6.90;62.10
44063;DHT22;29727;47.606;19.130;2023-01-28T14:22:05;6.90;62.70
44063;DHT22;29727;47.606;19.130;2023-01-28T14:24:32;6.80;62.60
44063;DHT22;29727;47.606;19.130;2023-01-28T14:32:18;6.70;62.70
44063;DHT22;29727;47.606;19.130;2023-01-28T14:34:47;6.70;62.80
44063;DHT22;29727;47.606;19.130;2023-01-28T14:37:15;6.70;62.50
44063;DHT22;29727;47.606;19.130;2023-01-28T14:39:48;6.70;63.20
44063;DHT22;29727;47.606;19.130;2023-01-28T14:42:22;6.70;63.30
44063;DHT22;29727;47.606;19.130;2023-01-28T14:44:52;6.70;63.00
44063;DHT22;29727;47.606;19.130;2023-01-28T14:55:50;6.50;66.30
44063;DHT22;29727;47.606;19.130;2023-01-28T15:00:59;6.40;67.10
44063;DHT22;29727;47.606;19.130;2023-01-28T15:03:26;6.30;67.40
44063;DHT22;29727;47.606;19.130;2023-01-28T15:06:12;6.30;68.00
44063;DHT22;29727;47.606;19.130;2023-01-28T15:08:38;6.20;68.20
44063;DHT22;29727;47.606;19.130;2023-01-28T15:11:06;6.20;68.30
44063;DHT22;29727;47.606;19.130;2023-01-28T15:13:37;6.20;68.70
44063;DHT22;29727;47.606;19.130;2023-01-28T15:16:05;6.20;68.50
44063;DHT22;29727;47.606;19.130;2023-01-28T15:18:42;6.20;68.70
44063;DHT22;29727;47.606;19.130;2023-01-28T15:21:08;6.20;68.60
44063;DHT22;29727;47.606;19.130;2023-01-28T15:23:36;6.00;68.60
44063;DHT22;29727;47.606;19.130;2023-01-28T15:26:30;5.80;69.10
44063;DHT22;29727;47.606;19.130;2023-01-28T15:28:57;5.80;69.80
44063;DHT22;29727;47.606;19.130;2023-01-28T15:31:28;5.70;70.00
44063;DHT22;29727;47.606;19.130;2023-01-28T15:34:15;5.60;70.80
44063;DHT22;29727;47.606;19.130;2023-01-28T15:36:42;5.50;71.30
44063;DHT22;29727;47.606;19.130;2023-01-28T15:39:16;5.50;71.50
44063;DHT22;29727;47.606;19.130;2023-01-28T15:41:44;5.40;71.20
44063;DHT22;29727;47.606;19.130;2023-01-28T15:46:47;5.30;71.70
44063;DHT22;29727;47.606;19.130;2023-01-28T15:49:14;5.30;72.00
44063;DHT22;29727;47.606;19.130;2023-01-28T15:51:41;5.20;72.20
44063;DHT22;29727;47.606;19.130;2023-01-28T15:54:12;5.20;72.50
44063;DHT22;29727;47.606;19.130;2023-01-28T15:56:38;5.20;72.30
44063;DHT22;29727;47.606;19.130;2023-01-28T16:01:34;5.20;72.50
44063;DHT22;29727;47.606;19.130;2023-01-28T16:04:02;5.20;72.80
44063;DHT22;29727;47.606;19.130;2023-01-28T16:06:35;5.20;73.00
44063;DHT22;29727;47.606;19.130;2023-01-28T16:09:05;5.20;73.00
44063;DHT22;29727;47.606;19.130;2023-01-28T16:11:35;5.20;72.90
44063;DHT22;29727;47.606;19.130;2023-01-28T16:14:25;5.20;72.80
44063;DHT22;29727;47.606;19.130;2023-01-28T16:16:55;5.20;72.70
44063;DHT22;29727;47.606;19.130;2023-01-28T16:19:42;5.20;72.70
44063;DHT22;29727;47.606;19.130;2023-01-28T16:22:31;5.10;72.80
44063;DHT22;29727;47.606;19.130;2023-01-28T16:24:57;5.20;73.20
44063;DHT22;29727;47.606;19.130;2023-01-28T16:27:26;5.20;73.00
44063;DHT22;29727;47.606;19.130;2023-01-28T16:29:52;5.20;72.90
44063;DHT22;29727;47.606;19.130;2023-01-28T16:32:47;5.20;72.50
44063;DHT22;29727;47.606;19.130;2023-01-28T16:35:33;5.20;73.00
44063;DHT22;29727;47.606;19.130;2023-01-28T16:37:59;5.20;73.10
44063;DHT22;29727;47.606;19.130;2023-01-28T16:40:25;5.20;73.10
44063;DHT22;29727;47.606;19.130;2023-01-28T16:42:54;5.20;73.10
44063;DHT22;29727;47.606;19.130;2023-01-28T16:45:24;5.10;73.00
44063;DHT22;29727;47.606;19.130;2023-01-28T16:47:51;5.10;73.30
44063;DHT22;29727;47.606;19.130;2023-01-28T16:50:17;5.10;73.60
44063;DHT22;29727;47.606;19.130;2023-01-28T16:52:48;5.10;73.60
44063;DHT22;29727;47.606;19.130;2023-01-28T16:55:17;5.10;73.70
44063;DHT22;29727;47.606;19.130;2023-01-28T16:57:44;5.10;73.90
44063;DHT22;29727;47.606;19.130;2023-01-28T17:00:30;5.10;73.70
44063;DHT22;29727;47.606;19.130;2023-01-28T17:02:59;5.10;74.30
44063;DHT22;29727;47.606;19.130;2023-01-28T17:05:25;5.10;74.20
44063;DHT22;29727;47.606;19.130;2023-01-28T17:07:54;5.20;73.90
44063;DHT22;29727;47.606;19.130;2023-01-28T17:10:23;5.10;73.30
44063;DHT22;29727;47.606;19.130;2023-01-28T17:12:49;5.20;73.90
44063;DHT22;29727;47.606;19.130;2023-01-28T17:15:15;5.10;73.50
44063;DHT22;29727;47.606;19.130;2023-01-28T17:17:41;5.10;73.60
44063;DHT22;29727;47.606;19.130;2023-01-28T17:20:10;5.10;74.20
44063;DHT22;29727;47.606;19.130;2023-01-28T17:22:36;5.10;73.70
44063;DHT22;29727;47.606;19.130;2023-01-28T17:25:02;5.10;74.30
44063;DHT22;29727;47.606;19.130;2023-01-28T17:27:27;5.00;73.60
44063;DHT22;29727;47.606;19.130;2023-01-28T17:29:53;5.00;73.70
44063;DHT22;29727;47.606;19.130;2023-01-28T17:32:19;5.00;74.30
44063;DHT22;29727;47.606;19.130;2023-01-28T17:34:46;5.00;74.30
44063;DHT22;29727;47.606;19.130;2023-01-28T17:37:12;5.00;74.10
44063;DHT22;29727;47.606;19.130;2023-01-28T17:39:37;5.00;74.50
44063;DHT22;29727;47.606;19.130;2023-01-28T17:42:03;5.00;74.40
44063;DHT22;29727;47.606;19.130;2023-01-28T17:44:29;4.90;74.30
44063;DHT22;29727;47.606;19.130;2023-01-28T17:46:54;4.90;74.20
44063;DHT22;29727;47.606;19.130;2023-01-28T17:49:23;4.90;74.40
44063;DHT22;29727;47.606;19.130;2023-01-28T17:51:49;4.90;74.00
44063;DHT22;29727;47.606;19.130;2023-01-28T17:54:15;4.80;74.60
44063;DHT22;29727;47.606;19.130;2023-01-28T17:56:41;4.80;74.80
44063;DHT22;29727;47.606;19.130;2023-01-28T17:59:08;4.70;74.70
44063;DHT22;29727;47.606;19.130;2023-01-28T18:01:34;4.70;75.20
44063;DHT22;29727;47.606;19.130;2023-01-28T18:04:02;4.70;75.30
44063;DHT22;29727;47.606;19.130;2023-01-28T18:06:33;4.80;75.40
44063;DHT22;29727;47.606;19.130;2023-01-28T18:08:59;4.80;75.20
44063;DHT22;29727;47.606;19.130;2023-01-28T18:11:25;4.80;75.00
44063;DHT22;29727;47.606;19.130;2023-01-28T18:13:50;4.90;74.10
44063;DHT22;29727;47.606;19.130;2023-01-28T18:16:19;4.90;74.10
44063;DHT22;29727;47.606;19.130;2023-01-28T18:18:48;4.90;74.30
44063;DHT22;29727;47.606;19.130;2023-01-28T18:24:04;4.90;74.70
44063;DHT22;29727;47.606;19.130;2023-01-28T18:26:30;4.90;74.50